createdAt,value
2016-12-16T00:00:16.507Z,737.81
2016-12-16T00:01:16.490Z,737.78
2016-12-16T00:02:16.473Z,737.8
2016-12-16T00:03:16.456Z,737.78
2016-12-16T00:04:16.438Z,737.79
2016-12-16T00:05:16.421Z,737.78
2016-12-16T00:06:16.404Z,737.81
2016-12-16T00:07:16.386Z,737.77
2016-12-16T00:08:16.370Z,737.77
2016-12-16T00:09:16.352Z,737.78
2016-12-16T00:10:16.335Z,737.79
2016-12-16T00:11:16.318Z,737.8
2016-12-16T00:12:16.301Z,737.74
2016-12-16T00:13:16.283Z,737.76
2016-12-16T00:14:16.266Z,737.77
2016-12-16T00:15:16.250Z,737.76
2016-12-16T00:16:16.232Z,737.76
2016-12-16T00:17:16.214Z,737.79
2016-12-16T00:18:16.198Z,737.78
2016-12-16T00:19:16.181Z,737.78
2016-12-16T00:20:16.162Z,737.77
2016-12-16T00:21:16.146Z,737.78
2016-12-16T00:22:16.130Z,737.82
2016-12-16T00:23:16.112Z,737.82
2016-12-16T00:24:16.096Z,737.81
2016-12-16T00:25:16.079Z,737.86
2016-12-16T00:26:16.061Z,737.86
2016-12-16T00:27:16.045Z,737.87
2016-12-16T00:28:16.027Z,737.84
2016-12-16T00:29:16.011Z,737.81
2016-12-16T00:30:15.993Z,737.79
2016-12-16T00:31:15.976Z,737.82
2016-12-16T00:32:15.958Z,737.85
2016-12-16T00:33:15.942Z,737.78
2016-12-16T00:34:15.925Z,737.82
2016-12-16T00:35:15.908Z,737.84
2016-12-16T00:36:15.891Z,737.8
2016-12-16T00:37:15.873Z,737.79
2016-12-16T00:38:15.857Z,737.83
2016-12-16T00:39:15.840Z,737.88
2016-12-16T00:40:15.823Z,737.86
2016-12-16T00:41:15.805Z,737.85
2016-12-16T00:42:15.787Z,737.86
2016-12-16T00:43:15.770Z,737.82
2016-12-16T00:44:15.754Z,737.81
2016-12-16T00:45:15.737Z,737.83
2016-12-16T00:46:15.719Z,737.84
2016-12-16T00:47:15.702Z,737.84
2016-12-16T00:48:15.686Z,737.86
2016-12-16T00:49:15.669Z,737.87
2016-12-16T00:50:15.652Z,737.82
2016-12-16T00:51:15.635Z,737.85
2016-12-16T00:52:15.617Z,737.88
2016-12-16T00:53:15.600Z,737.84
2016-12-16T00:54:15.583Z,737.86
2016-12-16T00:55:15.567Z,737.87
2016-12-16T00:56:15.550Z,737.82
2016-12-16T00:57:15.533Z,737.88
2016-12-16T00:58:15.516Z,737.87
2016-12-16T00:59:15.498Z,737.84
2016-12-16T01:00:15.481Z,737.89
2016-12-16T01:01:15.464Z,737.9
2016-12-16T01:02:15.449Z,737.92
2016-12-16T01:04:15.412Z,737.94
2016-12-16T01:05:15.396Z,737.96
2016-12-16T01:06:15.380Z,737.92
2016-12-16T01:07:15.362Z,737.96
2016-12-16T01:08:15.344Z,737.95
2016-12-16T01:09:15.329Z,737.95
2016-12-16T01:10:15.312Z,738.03
2016-12-16T01:11:15.293Z,737.97
2016-12-16T01:12:15.276Z,738.02
2016-12-16T01:13:15.261Z,737.98
2016-12-16T01:14:15.243Z,738
2016-12-16T01:15:15.226Z,737.99
2016-12-16T01:16:15.208Z,738.02
2016-12-16T01:17:15.191Z,738.03
2016-12-16T01:18:15.176Z,738.05
2016-12-16T01:19:15.157Z,738.06
2016-12-16T01:20:15.140Z,738.06
2016-12-16T01:21:15.124Z,738.02
2016-12-16T01:22:15.107Z,738.05
2016-12-16T01:23:15.089Z,738.06
2016-12-16T01:24:15.073Z,738.07
2016-12-16T01:25:15.056Z,738.04
2016-12-16T01:26:15.038Z,738.03
2016-12-16T01:27:15.021Z,738
2016-12-16T01:28:15.005Z,738.01
2016-12-16T01:29:14.989Z,738.03
2016-12-16T01:30:14.971Z,737.98
2016-12-16T01:31:14.955Z,737.95
2016-12-16T01:32:14.937Z,738.03
2016-12-16T01:33:14.920Z,738.03
2016-12-16T01:34:14.904Z,738.01
2016-12-16T01:35:14.887Z,738.03
2016-12-16T01:36:14.871Z,738.02
2016-12-16T01:37:14.853Z,738
2016-12-16T01:38:14.836Z,738.11
2016-12-16T01:39:14.818Z,738.07
2016-12-16T01:40:14.802Z,738.04
2016-12-16T01:41:14.785Z,738.01
2016-12-16T01:42:14.767Z,738.05
2016-12-16T01:43:14.751Z,738.04
2016-12-16T01:44:14.734Z,738.07
2016-12-16T01:45:14.716Z,738.07
2016-12-16T01:46:14.700Z,738.05
2016-12-16T01:47:14.684Z,738.08
2016-12-16T01:48:14.666Z,738.05
2016-12-16T01:49:14.650Z,738.05
2016-12-16T01:50:14.633Z,738.08
2016-12-16T01:51:14.615Z,738.08
2016-12-16T01:52:14.599Z,738.03
2016-12-16T01:53:14.582Z,738.04
2016-12-16T01:54:14.566Z,738.01
2016-12-16T01:55:14.547Z,738.07
2016-12-16T01:56:14.531Z,738.08
2016-12-16T01:57:14.514Z,738.09
2016-12-16T01:58:14.497Z,738.05
2016-12-16T01:59:14.479Z,738.07
2016-12-16T02:01:14.648Z,738.07
2016-12-16T02:02:14.632Z,738.03
2016-12-16T02:03:14.411Z,738.05
2016-12-16T02:04:14.394Z,738.07
2016-12-16T02:05:14.377Z,738.06
2016-12-16T02:06:14.361Z,738.06
2016-12-16T02:07:14.343Z,738.02
2016-12-16T02:08:14.328Z,738.06
2016-12-16T02:09:14.311Z,738.08
2016-12-16T02:10:14.292Z,738.09
2016-12-16T02:11:14.275Z,738.05
2016-12-16T02:12:14.260Z,738.04
2016-12-16T02:13:14.243Z,738.03
2016-12-16T02:14:14.226Z,738
2016-12-16T02:15:14.209Z,738.04
2016-12-16T02:16:14.191Z,738.04
2016-12-16T02:17:14.173Z,738.06
2016-12-16T02:18:14.158Z,738.03
2016-12-16T02:19:14.141Z,738.03
2016-12-16T02:20:14.124Z,738
2016-12-16T02:21:14.105Z,738.02
2016-12-16T02:22:14.089Z,738.01
2016-12-16T02:23:14.072Z,738.03
2016-12-16T02:24:14.055Z,738.01
2016-12-16T02:25:14.037Z,738
2016-12-16T02:26:14.020Z,738.01
2016-12-16T02:27:14.004Z,738.01
2016-12-16T02:28:13.985Z,738.02
2016-12-16T02:29:13.969Z,738.05
2016-12-16T02:30:13.953Z,738.02
2016-12-16T02:31:13.935Z,738.03
2016-12-16T02:32:13.918Z,738.01
2016-12-16T02:33:13.902Z,738.04
2016-12-16T02:34:13.884Z,738.05
2016-12-16T02:35:13.867Z,738.04
2016-12-16T02:36:13.849Z,738.03
2016-12-16T02:37:13.834Z,738.07
2016-12-16T02:38:13.816Z,738.08
2016-12-16T02:39:13.799Z,738.08
2016-12-16T02:40:13.783Z,738.07
2016-12-16T02:41:13.765Z,738.09
2016-12-16T02:42:13.748Z,738.08
2016-12-16T02:43:13.730Z,738.07
2016-12-16T02:44:13.714Z,738.05
2016-12-16T02:45:13.698Z,738.07
2016-12-16T02:46:13.679Z,738.06
2016-12-16T02:47:13.664Z,738.05
2016-12-16T02:48:13.646Z,738
2016-12-16T02:49:13.630Z,738.01
2016-12-16T02:50:13.613Z,738.06
2016-12-16T02:51:13.595Z,738.06
2016-12-16T02:52:13.578Z,738.05
2016-12-16T02:53:13.563Z,738.01
2016-12-16T02:54:13.545Z,738.01
2016-12-16T02:55:13.527Z,738.02
2016-12-16T02:56:13.512Z,738.01
2016-12-16T02:57:13.494Z,737.99
2016-12-16T02:58:13.477Z,738.01
2016-12-16T02:59:13.460Z,737.99
2016-12-16T03:00:13.442Z,738
2016-12-16T03:01:13.425Z,738.03
2016-12-16T03:02:13.409Z,738.01
2016-12-16T03:03:13.392Z,738.01
2016-12-16T03:04:13.374Z,737.98
2016-12-16T03:05:13.357Z,738.02
2016-12-16T03:06:13.340Z,738.01
2016-12-16T03:07:13.324Z,737.99
2016-12-16T03:08:13.306Z,738
2016-12-16T03:09:13.288Z,738.01
2016-12-16T03:10:13.272Z,738
2016-12-16T03:11:13.256Z,737.99
2016-12-16T03:12:13.237Z,737.99
2016-12-16T03:13:13.221Z,737.95
2016-12-16T03:14:13.205Z,737.97
2016-12-16T03:15:13.187Z,737.98
2016-12-16T03:16:13.169Z,737.97
2016-12-16T03:17:13.152Z,737.96
2016-12-16T03:18:13.136Z,737.98
2016-12-16T03:19:13.118Z,737.95
2016-12-16T03:20:13.104Z,737.96
2016-12-16T03:21:13.084Z,737.98
2016-12-16T03:22:13.069Z,737.96
2016-12-16T03:23:13.050Z,737.99
2016-12-16T03:24:13.034Z,737.96
2016-12-16T03:25:13.017Z,737.98
2016-12-16T03:26:13.000Z,738
2016-12-16T03:27:12.983Z,737.99
2016-12-16T03:28:12.965Z,737.99
2016-12-16T03:29:12.950Z,737.99
2016-12-16T03:30:12.932Z,738.02
2016-12-16T03:31:12.921Z,738.01
2016-12-16T03:32:12.898Z,738
2016-12-16T03:33:12.882Z,737.98
2016-12-16T03:34:12.863Z,738.01
2016-12-16T03:35:12.848Z,738
2016-12-16T03:36:12.831Z,738.01
2016-12-16T03:37:12.814Z,738
2016-12-16T03:38:12.797Z,738.02
2016-12-16T03:39:12.780Z,737.99
2016-12-16T03:40:12.763Z,737.96
2016-12-16T03:41:12.746Z,737.98
2016-12-16T03:42:12.728Z,738
2016-12-16T03:43:12.711Z,737.97
2016-12-16T03:44:12.696Z,737.97
2016-12-16T03:45:12.677Z,738
2016-12-16T03:46:12.661Z,738.02
2016-12-16T03:47:12.645Z,737.99
2016-12-16T03:48:12.628Z,737.92
2016-12-16T03:49:12.611Z,737.99
2016-12-16T03:50:12.593Z,737.99
2016-12-16T03:51:12.578Z,738.02
2016-12-16T03:52:12.559Z,737.96
2016-12-16T03:53:12.543Z,737.98
2016-12-16T03:54:12.526Z,738.01
2016-12-16T03:55:12.510Z,738.02
2016-12-16T03:56:12.493Z,738.01
2016-12-16T03:57:12.476Z,737.99
2016-12-16T03:58:12.460Z,737.97
2016-12-16T03:59:12.441Z,737.97
2016-12-16T04:00:12.426Z,737.96
2016-12-16T04:01:12.408Z,737.96
2016-12-16T04:02:12.391Z,737.98
2016-12-16T04:03:12.374Z,737.98
2016-12-16T04:04:12.358Z,738
2016-12-16T04:05:12.342Z,737.99
2016-12-16T04:06:12.325Z,737.99
2016-12-16T04:07:12.307Z,737.99
2016-12-16T04:08:12.291Z,738.02
2016-12-16T04:09:12.273Z,738
2016-12-16T04:10:12.257Z,737.96
2016-12-16T04:11:12.240Z,737.96
2016-12-16T04:12:12.226Z,738.02
2016-12-16T04:13:12.207Z,738.01
2016-12-16T04:14:12.189Z,738.02
2016-12-16T04:15:12.172Z,738.02
2016-12-16T04:16:12.157Z,738.01
2016-12-16T04:17:12.140Z,737.97
2016-12-16T04:18:12.123Z,738.04
2016-12-16T04:19:12.105Z,738.04
2016-12-16T04:20:12.090Z,738.04
2016-12-16T04:21:12.071Z,738
2016-12-16T04:22:12.054Z,737.99
2016-12-16T04:23:12.039Z,738.01
2016-12-16T04:24:12.021Z,737.95
2016-12-16T04:25:12.005Z,738.03
2016-12-16T04:26:11.988Z,738.08
2016-12-16T04:27:11.971Z,738.05
2016-12-16T04:28:11.954Z,738.1
2016-12-16T04:29:11.938Z,738.07
2016-12-16T04:30:11.920Z,738.06
2016-12-16T04:31:11.903Z,738.06
2016-12-16T04:32:11.885Z,738.09
2016-12-16T04:33:11.869Z,738.06
2016-12-16T04:34:11.853Z,738.07
2016-12-16T04:35:11.835Z,738.08
2016-12-16T04:36:11.817Z,738.12
2016-12-16T04:37:11.801Z,738.1
2016-12-16T04:38:11.785Z,738.14
2016-12-16T04:39:11.767Z,738.11
2016-12-16T04:40:11.750Z,738.1
2016-12-16T04:41:11.733Z,738.12
2016-12-16T04:42:11.718Z,738.07
2016-12-16T04:43:11.699Z,738.12
2016-12-16T04:44:11.682Z,738.11
2016-12-16T04:45:11.668Z,738.09
2016-12-16T04:46:11.650Z,738.12
2016-12-16T04:47:11.631Z,738.11
2016-12-16T04:48:11.615Z,738.13
2016-12-16T04:49:11.597Z,738.1
2016-12-16T04:50:11.582Z,738.11
2016-12-16T04:51:11.564Z,738.16
2016-12-16T04:52:11.546Z,738.1
2016-12-16T04:53:11.529Z,738.15
2016-12-16T04:54:11.511Z,738.16
2016-12-16T04:55:11.495Z,738.15
2016-12-16T04:56:11.479Z,738.17
2016-12-16T04:57:11.462Z,738.13
2016-12-16T04:58:11.443Z,738.17
2016-12-16T04:59:11.427Z,738.15
2016-12-16T05:00:11.411Z,738.21
2016-12-16T05:01:11.394Z,738.19
2016-12-16T05:02:11.376Z,738.22
2016-12-16T05:03:11.359Z,738.22
2016-12-16T05:04:11.341Z,738.23
2016-12-16T05:05:11.323Z,738.19
2016-12-16T05:06:11.307Z,738.18
2016-12-16T05:07:11.290Z,738.22
2016-12-16T05:08:11.273Z,738.2
2016-12-16T05:09:11.256Z,738.21
2016-12-16T05:10:11.238Z,738.22
2016-12-16T05:11:11.222Z,738.13
2016-12-16T05:12:11.205Z,738.19
2016-12-16T05:13:11.186Z,738.21
2016-12-16T05:14:11.169Z,738.16
2016-12-16T05:15:11.153Z,738.18
2016-12-16T05:16:11.139Z,738.24
2016-12-16T05:17:11.122Z,738.2
2016-12-16T05:18:11.104Z,738.19
2016-12-16T05:19:11.083Z,738.19
2016-12-16T05:20:11.067Z,738.24
2016-12-16T05:21:11.049Z,738.21
2016-12-16T05:22:11.033Z,738.21
2016-12-16T05:23:11.016Z,738.18
2016-12-16T05:24:10.998Z,738.22
2016-12-16T05:25:10.981Z,738.21
2016-12-16T05:26:10.965Z,738.25
2016-12-16T05:27:10.946Z,738.25
2016-12-16T05:28:10.929Z,738.28
2016-12-16T05:29:10.912Z,738.27
2016-12-16T05:30:10.896Z,738.25
2016-12-16T05:31:10.877Z,738.19
2016-12-16T05:32:10.861Z,738.26
2016-12-16T05:33:10.844Z,738.26
2016-12-16T05:34:10.825Z,738.25
2016-12-16T05:35:10.808Z,738.24
2016-12-16T05:36:10.792Z,738.24
2016-12-16T05:37:10.775Z,738.35
2016-12-16T05:38:10.755Z,738.34
2016-12-16T05:39:10.739Z,738.29
2016-12-16T05:40:10.721Z,738.31
2016-12-16T05:41:10.704Z,738.32
2016-12-16T05:42:10.687Z,738.31
2016-12-16T05:43:10.670Z,738.31
2016-12-16T05:44:10.653Z,738.33
2016-12-16T05:45:10.635Z,738.3
2016-12-16T05:46:10.618Z,738.32
2016-12-16T05:47:10.601Z,738.34
2016-12-16T05:48:10.583Z,738.35
2016-12-16T05:49:10.564Z,738.35
2016-12-16T05:50:10.548Z,738.34
2016-12-16T05:51:10.531Z,738.35
2016-12-16T05:52:10.514Z,738.34
2016-12-16T05:53:10.496Z,738.35
2016-12-16T05:54:10.481Z,738.33
2016-12-16T05:55:10.463Z,738.38
2016-12-16T05:56:10.443Z,738.39
2016-12-16T05:57:10.427Z,738.39
2016-12-16T05:58:10.410Z,738.36
2016-12-16T05:59:10.392Z,738.39
2016-12-16T06:00:10.374Z,738.39
2016-12-16T06:01:10.361Z,738.39
2016-12-16T06:02:10.341Z,738.41
2016-12-16T06:03:10.322Z,738.37
2016-12-16T06:04:10.305Z,738.4
2016-12-16T06:05:10.288Z,738.37
2016-12-16T06:06:10.271Z,738.43
2016-12-16T06:07:10.252Z,738.43
2016-12-16T06:08:10.234Z,738.43
2016-12-16T06:09:10.218Z,738.43
2016-12-16T06:10:10.201Z,738.5
2016-12-16T06:11:10.182Z,738.43
2016-12-16T06:12:10.164Z,738.43
2016-12-16T06:13:10.148Z,738.43
2016-12-16T06:14:10.129Z,738.47
2016-12-16T06:15:10.111Z,738.47
2016-12-16T06:16:10.095Z,738.43
2016-12-16T06:17:10.078Z,738.46
2016-12-16T06:18:10.059Z,738.5
2016-12-16T06:19:10.042Z,738.52
2016-12-16T06:20:10.025Z,738.48
2016-12-16T06:21:10.008Z,738.52
2016-12-16T06:22:09.989Z,738.55
2016-12-16T06:23:09.971Z,738.54
2016-12-16T06:24:09.955Z,738.53
2016-12-16T06:25:09.936Z,738.55
2016-12-16T06:26:09.919Z,738.58
2016-12-16T06:27:09.902Z,738.58
2016-12-16T06:28:09.884Z,738.57
2016-12-16T06:29:09.865Z,738.53
2016-12-16T06:30:09.849Z,738.6
2016-12-16T06:31:09.831Z,738.54
2016-12-16T06:32:09.813Z,738.52
2016-12-16T06:33:09.800Z,738.53
2016-12-16T06:34:09.777Z,738.56
2016-12-16T06:35:09.761Z,738.58
2016-12-16T06:36:09.743Z,738.58
2016-12-16T06:37:09.724Z,738.58
2016-12-16T06:38:09.707Z,738.54
2016-12-16T06:39:09.690Z,738.57
2016-12-16T06:40:09.671Z,738.59
2016-12-16T06:41:09.653Z,738.6
2016-12-16T06:42:09.637Z,738.61
2016-12-16T06:43:09.618Z,738.64
2016-12-16T06:44:09.602Z,738.64
2016-12-16T06:45:09.583Z,738.65
2016-12-16T06:46:09.566Z,738.64
2016-12-16T06:47:09.549Z,738.69
2016-12-16T06:48:09.529Z,738.7
2016-12-16T06:49:09.513Z,738.64
2016-12-16T06:50:09.494Z,738.68
2016-12-16T06:51:09.477Z,738.72
2016-12-16T06:52:09.460Z,738.71
2016-12-16T06:53:09.441Z,738.71
2016-12-16T06:54:09.425Z,738.75
2016-12-16T06:55:09.407Z,738.77
2016-12-16T06:56:09.388Z,738.73
2016-12-16T06:57:09.371Z,738.74
2016-12-16T06:58:09.355Z,738.74
2016-12-16T06:59:09.338Z,738.75
2016-12-16T07:00:09.320Z,738.78
2016-12-16T07:01:09.303Z,738.76
2016-12-16T07:02:09.285Z,738.82
2016-12-16T07:03:09.266Z,738.85
2016-12-16T07:04:09.250Z,738.82
2016-12-16T07:05:09.233Z,738.79
2016-12-16T07:06:09.214Z,738.84
2016-12-16T07:07:09.197Z,738.8
2016-12-16T07:08:09.181Z,738.81
2016-12-16T07:09:09.166Z,738.85
2016-12-16T07:10:09.146Z,738.83
2016-12-16T07:11:09.128Z,738.82
2016-12-16T07:12:09.112Z,738.84
2016-12-16T07:13:09.094Z,738.85
2016-12-16T07:14:09.077Z,738.85
2016-12-16T07:15:09.060Z,738.86
2016-12-16T07:16:09.042Z,738.91
2016-12-16T07:17:09.025Z,738.88
2016-12-16T07:18:09.009Z,738.87
2016-12-16T07:19:08.991Z,738.88
2016-12-16T07:20:08.975Z,738.91
2016-12-16T07:21:08.958Z,738.89
2016-12-16T07:22:08.941Z,738.88
2016-12-16T07:23:08.924Z,738.88
2016-12-16T07:24:08.908Z,738.89
2016-12-16T07:25:08.891Z,738.91
2016-12-16T07:26:08.875Z,738.93
2016-12-16T07:27:08.859Z,738.89
2016-12-16T07:28:08.840Z,738.92
2016-12-16T07:29:08.824Z,738.95
2016-12-16T07:30:08.809Z,738.91
2016-12-16T07:31:08.792Z,738.91
2016-12-16T07:32:08.775Z,738.93
2016-12-16T07:33:08.758Z,738.92
2016-12-16T07:34:08.743Z,738.93
2016-12-16T07:35:08.726Z,738.94
2016-12-16T07:36:08.709Z,738.97
2016-12-16T07:37:08.693Z,738.99
2016-12-16T07:38:08.678Z,738.97
2016-12-16T07:39:08.660Z,738.97
2016-12-16T07:40:08.644Z,738.98
2016-12-16T07:41:08.627Z,738.99
2016-12-16T07:42:08.610Z,739
2016-12-16T07:43:08.595Z,739.06
2016-12-16T07:44:08.578Z,739.05
2016-12-16T07:45:08.562Z,739.04
2016-12-16T07:46:08.545Z,739.03
2016-12-16T07:47:08.531Z,739.02
2016-12-16T07:48:08.515Z,739.06
2016-12-16T07:49:08.499Z,739.05
2016-12-16T07:50:08.482Z,739.08
2016-12-16T07:51:08.467Z,739.03
2016-12-16T07:52:08.456Z,739.09
2016-12-16T07:53:08.435Z,739.09
2016-12-16T07:54:08.421Z,739.08
2016-12-16T07:55:08.406Z,739.12
2016-12-16T07:56:08.393Z,739.12
2016-12-16T07:57:08.373Z,739.08
2016-12-16T07:58:08.359Z,739.09
2016-12-16T07:59:08.343Z,739.13
2016-12-16T08:00:08.327Z,739.16
2016-12-16T08:01:08.311Z,739.14
2016-12-16T08:02:08.297Z,739.15
2016-12-16T08:03:08.282Z,739.18
2016-12-16T08:04:08.266Z,739.15
2016-12-16T08:05:08.251Z,739.11
2016-12-16T08:06:08.236Z,739.19
2016-12-16T08:07:08.220Z,739.2
2016-12-16T08:08:08.204Z,739.16
2016-12-16T08:09:08.190Z,739.12
2016-12-16T08:10:08.176Z,739.15
2016-12-16T08:11:08.162Z,739.15
2016-12-16T08:12:08.145Z,739.19
2016-12-16T08:13:08.130Z,739.16
2016-12-16T08:14:08.115Z,739.19
2016-12-16T08:15:08.101Z,739.19
2016-12-16T08:16:08.086Z,739.24
2016-12-16T08:17:08.071Z,739.22
2016-12-16T08:18:08.057Z,739.21
2016-12-16T08:19:08.040Z,739.26
2016-12-16T08:20:08.026Z,739.25
2016-12-16T08:21:08.013Z,739.27
2016-12-16T08:22:07.998Z,739.24
2016-12-16T08:23:07.982Z,739.21
2016-12-16T08:24:07.968Z,739.23
2016-12-16T08:25:07.953Z,739.34
2016-12-16T08:26:07.938Z,739.32
2016-12-16T08:27:07.922Z,739.31
2016-12-16T08:28:07.907Z,739.32
2016-12-16T08:29:07.892Z,739.32
2016-12-16T08:30:07.877Z,739.27
2016-12-16T08:31:07.863Z,739.31
2016-12-16T08:32:07.848Z,739.35
2016-12-16T08:33:07.832Z,739.38
2016-12-16T08:34:07.817Z,739.37
2016-12-16T08:35:07.802Z,739.41
2016-12-16T08:36:07.788Z,739.41
2016-12-16T08:37:07.772Z,739.44
2016-12-16T08:38:07.757Z,739.46
2016-12-16T08:39:07.741Z,739.42
2016-12-16T08:40:07.728Z,739.43
2016-12-16T08:41:07.712Z,739.42
2016-12-16T08:42:07.698Z,739.4
2016-12-16T08:43:07.684Z,739.44
2016-12-16T08:44:07.669Z,739.45
2016-12-16T08:45:07.655Z,739.48
2016-12-16T08:46:07.641Z,739.46
2016-12-16T08:47:07.630Z,739.47
2016-12-16T08:48:07.613Z,739.46
2016-12-16T08:49:07.600Z,739.43
2016-12-16T08:50:07.585Z,739.48
2016-12-16T08:51:07.573Z,739.48
2016-12-16T08:52:07.558Z,739.49
2016-12-16T08:53:07.545Z,739.49
2016-12-16T08:54:07.533Z,739.56
2016-12-16T08:55:07.518Z,739.54
2016-12-16T08:56:07.505Z,739.54
2016-12-16T08:57:07.492Z,739.55
2016-12-16T08:58:07.479Z,739.59
2016-12-16T08:59:07.464Z,739.55
2016-12-16T09:00:07.651Z,739.58
2016-12-16T09:01:07.439Z,739.58
2016-12-16T09:02:07.426Z,739.65
2016-12-16T09:03:07.411Z,739.62
2016-12-16T09:04:07.398Z,739.6
2016-12-16T09:05:07.386Z,739.63
2016-12-16T09:06:07.372Z,739.63
2016-12-16T09:07:07.359Z,739.67
2016-12-16T09:08:07.347Z,739.64
2016-12-16T09:09:07.334Z,739.68
2016-12-16T09:10:07.321Z,739.68
2016-12-16T09:11:07.308Z,739.71
2016-12-16T09:12:07.295Z,739.7
2016-12-16T09:13:07.283Z,739.73
2016-12-16T09:14:07.270Z,739.73
2016-12-16T09:15:07.257Z,739.75
2016-12-16T09:16:07.245Z,739.73
2016-12-16T09:17:07.231Z,739.74
2016-12-16T09:18:07.218Z,739.75
2016-12-16T09:19:07.205Z,739.72
2016-12-16T09:20:07.192Z,739.71
2016-12-16T09:21:07.180Z,739.76
2016-12-16T09:22:07.166Z,739.76
2016-12-16T09:23:07.154Z,739.79
2016-12-16T09:24:07.142Z,739.79
2016-12-16T09:25:07.127Z,739.79
2016-12-16T09:26:07.115Z,739.81
2016-12-16T09:27:07.102Z,739.8
2016-12-16T09:28:07.087Z,739.72
2016-12-16T09:29:07.075Z,739.8
2016-12-16T09:30:07.062Z,739.79
2016-12-16T09:31:07.050Z,739.82
2016-12-16T09:32:07.036Z,739.78
2016-12-16T09:33:07.024Z,739.8
2016-12-16T09:34:07.011Z,739.8
2016-12-16T09:35:06.997Z,739.74
2016-12-16T09:36:06.985Z,739.78
2016-12-16T09:37:06.971Z,739.79
2016-12-16T09:38:06.959Z,739.79
2016-12-16T09:39:06.946Z,739.75
2016-12-16T09:40:06.934Z,739.79
2016-12-16T09:41:06.921Z,739.8
2016-12-16T09:42:06.909Z,739.81
2016-12-16T09:43:06.895Z,739.79
2016-12-16T09:44:06.883Z,739.83
2016-12-16T09:45:06.870Z,739.82
2016-12-16T09:46:06.858Z,739.85
2016-12-16T09:47:06.844Z,739.79
2016-12-16T09:48:06.833Z,739.82
2016-12-16T09:49:06.820Z,739.78
2016-12-16T09:50:06.807Z,739.78
2016-12-16T09:51:06.797Z,739.78
2016-12-16T09:52:06.783Z,739.77
2016-12-16T09:53:06.770Z,739.78
2016-12-16T09:54:06.758Z,739.73
2016-12-16T09:55:06.744Z,739.79
2016-12-16T09:56:06.730Z,739.75
2016-12-16T09:57:06.718Z,739.79
2016-12-16T09:58:06.704Z,739.79
2016-12-16T09:59:06.692Z,739.82
2016-12-16T10:00:06.679Z,739.83
2016-12-16T10:01:06.665Z,739.83
2016-12-16T10:02:06.652Z,739.79
2016-12-16T10:03:06.640Z,739.82
2016-12-16T10:04:06.628Z,739.78
2016-12-16T10:05:06.614Z,739.78
2016-12-16T10:06:06.602Z,739.76
2016-12-16T10:07:06.588Z,739.79
2016-12-16T10:08:06.577Z,739.82
2016-12-16T10:09:06.564Z,739.85
2016-12-16T10:10:06.552Z,739.83
2016-12-16T10:11:06.538Z,739.78
2016-12-16T10:12:06.526Z,739.85
2016-12-16T10:13:06.512Z,739.83
2016-12-16T10:14:06.500Z,739.87
2016-12-16T10:15:06.488Z,739.91
2016-12-16T10:16:06.475Z,739.85
2016-12-16T10:17:06.464Z,739.83
2016-12-16T10:18:06.450Z,739.84
2016-12-16T10:19:06.437Z,739.81
2016-12-16T10:20:06.425Z,739.84
2016-12-16T10:21:06.414Z,739.84
2016-12-16T10:22:06.401Z,739.86
2016-12-16T10:23:06.387Z,739.89
2016-12-16T10:24:06.374Z,739.85
2016-12-16T10:25:06.363Z,739.87
2016-12-16T10:26:06.350Z,739.85
2016-12-16T10:27:06.338Z,739.87
2016-12-16T10:28:06.325Z,739.83
2016-12-16T10:29:06.313Z,739.85
2016-12-16T10:30:06.300Z,739.88
2016-12-16T10:31:06.289Z,739.89
2016-12-16T10:32:06.275Z,739.87
2016-12-16T10:33:06.264Z,739.9
2016-12-16T10:34:06.251Z,739.87
2016-12-16T10:35:06.240Z,739.86
2016-12-16T10:36:06.229Z,739.89
2016-12-16T10:37:06.216Z,739.87
2016-12-16T10:38:06.206Z,739.85
2016-12-16T10:39:06.193Z,739.84
2016-12-16T10:40:06.182Z,739.87
2016-12-16T10:41:06.169Z,739.87
2016-12-16T10:42:06.160Z,739.89
2016-12-16T10:43:06.145Z,739.88
2016-12-16T10:44:06.135Z,739.9
2016-12-16T10:45:06.121Z,739.91
2016-12-16T10:46:06.112Z,739.88
2016-12-16T10:47:06.099Z,739.92
2016-12-16T10:48:06.089Z,739.86
2016-12-16T10:49:06.077Z,739.9
2016-12-16T10:50:06.066Z,739.89
2016-12-16T10:51:06.055Z,739.89
2016-12-16T10:52:06.042Z,739.86
2016-12-16T10:53:06.031Z,739.89
2016-12-16T10:54:06.019Z,739.87
2016-12-16T10:55:06.009Z,739.85
2016-12-16T10:56:05.996Z,739.9
2016-12-16T10:57:05.984Z,739.89
2016-12-16T10:58:05.974Z,739.89
2016-12-16T10:59:05.963Z,739.87
2016-12-16T11:00:05.949Z,739.91
2016-12-16T11:01:05.939Z,739.91
2016-12-16T11:02:05.927Z,739.88
2016-12-16T11:03:05.965Z,739.86
2016-12-16T11:04:05.903Z,739.86
2016-12-16T11:05:05.893Z,739.85
2016-12-16T11:06:05.881Z,739.86
2016-12-16T11:07:05.869Z,739.87
2016-12-16T11:08:05.858Z,739.88
2016-12-16T11:09:05.847Z,739.85
2016-12-16T11:10:05.835Z,739.86
2016-12-16T11:11:05.823Z,739.91
2016-12-16T11:12:05.813Z,739.83
2016-12-16T11:13:05.799Z,739.82
2016-12-16T11:14:05.788Z,739.8
2016-12-16T11:15:05.775Z,739.81
2016-12-16T11:16:05.764Z,739.83
2016-12-16T11:17:05.753Z,739.79
2016-12-16T11:18:05.739Z,739.81
2016-12-16T11:19:05.728Z,739.8
2016-12-16T11:20:05.716Z,739.82
2016-12-16T11:21:05.704Z,739.81
2016-12-16T11:22:05.692Z,739.8
2016-12-16T11:23:05.679Z,739.75
2016-12-16T11:24:05.668Z,739.77
2016-12-16T11:25:05.656Z,739.82
2016-12-16T11:26:05.643Z,739.82
2016-12-16T11:27:05.632Z,739.84
2016-12-16T11:28:05.619Z,739.81
2016-12-16T11:29:05.608Z,739.86
2016-12-16T11:30:05.595Z,739.84
2016-12-16T11:31:05.583Z,739.82
2016-12-16T11:32:05.571Z,739.79
2016-12-16T11:33:05.559Z,739.8
2016-12-16T11:34:05.549Z,739.84
2016-12-16T11:35:05.537Z,739.84
2016-12-16T11:36:05.524Z,739.86
2016-12-16T11:37:05.512Z,739.88
2016-12-16T11:38:05.501Z,739.81
2016-12-16T11:39:05.490Z,739.83
2016-12-16T11:40:05.477Z,739.77
2016-12-16T11:41:05.466Z,739.77
2016-12-16T11:42:05.455Z,739.73
2016-12-16T11:43:05.443Z,739.78
2016-12-16T11:44:05.430Z,739.79
2016-12-16T11:45:05.419Z,739.81
2016-12-16T11:46:05.409Z,739.82
2016-12-16T11:47:05.394Z,739.84
2016-12-16T11:48:05.381Z,739.83
2016-12-16T11:49:05.367Z,739.79
2016-12-16T11:50:05.355Z,739.81
2016-12-16T11:51:05.344Z,739.83
2016-12-16T11:52:05.330Z,739.77
2016-12-16T11:53:05.319Z,739.81
2016-12-16T11:54:05.307Z,739.84
2016-12-16T11:55:05.294Z,739.87
2016-12-16T11:56:05.280Z,739.87
2016-12-16T11:57:05.268Z,739.85
2016-12-16T11:58:05.256Z,739.83
2016-12-16T11:59:05.243Z,739.85
2016-12-16T12:00:05.232Z,739.86
2016-12-16T12:01:05.219Z,739.9
2016-12-16T12:02:05.208Z,739.9
2016-12-16T12:03:05.196Z,739.92
2016-12-16T12:04:05.184Z,739.88
2016-12-16T12:05:05.173Z,739.87
2016-12-16T12:06:05.161Z,739.9
2016-12-16T12:07:05.149Z,739.9
2016-12-16T12:08:05.139Z,739.89
2016-12-16T12:09:05.125Z,739.86
2016-12-16T12:10:05.116Z,739.92
2016-12-16T12:11:05.104Z,739.89
2016-12-16T12:12:05.094Z,739.87
2016-12-16T12:13:05.082Z,739.9
2016-12-16T12:14:05.071Z,739.88
2016-12-16T12:15:05.062Z,739.9
2016-12-16T12:16:05.047Z,739.94
2016-12-16T12:17:05.037Z,739.97
2016-12-16T12:18:05.025Z,739.94
2016-12-16T12:19:05.015Z,739.95
2016-12-16T12:20:05.001Z,739.98
2016-12-16T12:21:04.992Z,739.96
2016-12-16T12:22:04.981Z,739.94
2016-12-16T12:23:04.970Z,739.92
2016-12-16T12:24:04.957Z,739.93
2016-12-16T12:25:04.948Z,739.94
2016-12-16T12:26:04.937Z,739.98
2016-12-16T12:27:04.926Z,739.98
2016-12-16T12:28:04.916Z,739.93
2016-12-16T12:29:04.905Z,739.96
2016-12-16T12:30:04.895Z,739.97
2016-12-16T12:31:04.883Z,739.98
2016-12-16T12:32:04.873Z,739.92
2016-12-16T12:33:04.861Z,739.93